createdAt,value
2023-02-06T00:00:11.885Z,-0.70
2023-02-06T00:02:38.424Z,-0.70
2023-02-06T00:05:05.162Z,-0.60
2023-02-06T00:07:31.884Z,-0.70
2023-02-06T00:09:58.403Z,-0.70
2023-02-06T00:12:24.981Z,-0.70
2023-02-06T00:14:51.545Z,-0.70
2023-02-06T00:17:18.030Z,-0.70
2023-02-06T00:19:44.574Z,-0.80
2023-02-06T00:22:13.419Z,-0.70
2023-02-06T00:24:43.168Z,-0.80
2023-02-06T00:27:09.662Z,-0.90
2023-02-06T00:29:36.194Z,-0.90
2023-02-06T00:32:02.885Z,-0.90
2023-02-06T00:34:29.425Z,-0.90
2023-02-06T00:36:55.978Z,-1.00
2023-02-06T00:39:22.482Z,-1.10
2023-02-06T00:41:50.178Z,-1.10
2023-02-06T00:44:16.727Z,-1.10
2023-02-06T00:46:43.439Z,-1.10
2023-02-06T00:49:10.010Z,-1.10
2023-02-06T00:51:38.720Z,-1.10
2023-02-06T00:54:06.181Z,-1.10
2023-02-06T00:56:32.900Z,-1.20
2023-02-06T00:58:59.624Z,-1.20
2023-02-06T01:01:26.793Z,-1.30
2023-02-06T01:03:53.445Z,-1.30
2023-02-06T01:06:20.262Z,-1.30
2023-02-06T01:08:47.492Z,-1.30
2023-02-06T01:11:15.372Z,-1.30
2023-02-06T01:13:42.104Z,-1.30
2023-02-06T01:16:09.863Z,-1.40
2023-02-06T01:18:36.613Z,-1.50
2023-02-06T01:21:07.376Z,-1.50
2023-02-06T01:23:33.879Z,-1.40
2023-02-06T01:26:04.648Z,-1.50
2023-02-06T01:28:31.148Z,-1.40
2023-02-06T01:30:58.235Z,-1.50
2023-02-06T01:33:24.848Z,-1.50
2023-02-06T01:35:55.399Z,-1.60
2023-02-06T01:38:22.103Z,-1.60
2023-02-06T01:40:48.659Z,-1.60
2023-02-06T01:43:17.632Z,-1.60
2023-02-06T01:45:45.472Z,-1.70
2023-02-06T01:48:18.898Z,-1.70
2023-02-06T01:50:47.135Z,-1.70
2023-02-06T01:53:16.117Z,-1.70
2023-02-06T01:55:43.772Z,-1.80
2023-02-06T01:58:11.369Z,-1.80
2023-02-06T02:00:38.245Z,-1.90
2023-02-06T02:03:04.980Z,-2.00
2023-02-06T02:05:33.085Z,-2.00
2023-02-06T02:08:04.407Z,-1.90
2023-02-06T02:10:31.464Z,-1.90
2023-02-06T02:12:58.046Z,-2.00
2023-02-06T02:15:29.553Z,-2.10
2023-02-06T02:17:58.848Z,-2.10
2023-02-06T02:20:25.431Z,-2.10
2023-02-06T02:22:55.417Z,-2.10
2023-02-06T02:25:34.084Z,-2.10
2023-02-06T02:28:10.730Z,-2.10
2023-02-06T02:30:46.507Z,-2.20
2023-02-06T02:33:23.732Z,-2.20
2023-02-06T02:36:02.929Z,-2.20
2023-02-06T02:38:36.456Z,-2.20
2023-02-06T02:41:16.842Z,-2.30
2023-02-06T02:43:44.572Z,-2.30
2023-02-06T02:46:28.972Z,-2.30
2023-02-06T02:48:57.028Z,-2.30
2023-02-06T02:51:24.376Z,-2.30
2023-02-06T02:53:50.890Z,-2.30
2023-02-06T02:56:19.306Z,-2.20
2023-02-06T02:58:47.314Z,-2.20
2023-02-06T03:01:17.389Z,-2.20
2023-02-06T03:03:44.578Z,-2.30
2023-02-06T03:06:20.357Z,-2.10
2023-02-06T03:08:59.627Z,-2.20
2023-02-06T03:11:26.645Z,-2.20
2023-02-06T03:13:56.014Z,-2.20
2023-02-06T03:16:31.842Z,-2.20
2023-02-06T03:19:11.648Z,-2.10
2023-02-06T03:21:39.181Z,-2.70
2023-02-06T03:24:32.759Z,-2.10
2023-02-06T03:27:01.468Z,-2.20
2023-02-06T03:29:29.297Z,-2.30
2023-02-06T03:31:57.551Z,-2.30
2023-02-06T03:34:33.340Z,-2.30
2023-02-06T03:36:59.956Z,-2.30
2023-02-06T03:39:26.944Z,-2.30
2023-02-06T03:41:55.362Z,-2.30
2023-02-06T03:44:24.437Z,-2.20
2023-02-06T03:46:52.685Z,-2.20
2023-02-06T03:49:19.679Z,-2.20
2023-02-06T03:51:51.868Z,-2.30
2023-02-06T03:54:19.854Z,-2.30
2023-02-06T03:57:00.580Z,-2.30
2023-02-06T03:59:27.372Z,-2.30
2023-02-06T04:01:56.201Z,-2.30
2023-02-06T04:04:28.846Z,-2.40
2023-02-06T04:07:00.228Z,-2.50
2023-02-06T04:09:26.810Z,-2.60
2023-02-06T04:11:53.332Z,-2.60
2023-02-06T04:14:19.849Z,-2.50
2023-02-06T04:16:46.487Z,-2.50
2023-02-06T04:19:13.035Z,-2.50
2023-02-06T04:21:39.554Z,-2.50
2023-02-06T04:24:06.198Z,-2.50
2023-02-06T04:26:32.772Z,-2.50
2023-02-06T04:28:59.298Z,-2.50
2023-02-06T04:31:25.872Z,-2.50
2023-02-06T04:33:52.419Z,-2.20
2023-02-06T04:36:19.267Z,-2.40
2023-02-06T04:38:45.968Z,-2.40
2023-02-06T04:41:12.473Z,-2.80
2023-02-06T04:43:38.977Z,-2.30
2023-02-06T04:46:06.335Z,-2.20
2023-02-06T04:48:32.869Z,-2.20
2023-02-06T04:51:00.001Z,-2.20
2023-02-06T04:53:26.585Z,-2.20
2023-02-06T04:55:54.931Z,-2.10
2023-02-06T04:58:21.764Z,-2.00
2023-02-06T05:00:48.659Z,-2.00
2023-02-06T05:03:15.212Z,-2.00
2023-02-06T05:05:41.731Z,-1.90
2023-02-06T05:08:08.280Z,-1.90
2023-02-06T05:10:34.834Z,-1.90
2023-02-06T05:13:01.374Z,-1.80
2023-02-06T05:15:27.913Z,-1.80
2023-02-06T05:17:54.386Z,-1.80
2023-02-06T05:20:20.967Z,-1.70
2023-02-06T05:22:47.452Z,-1.70
2023-02-06T05:25:13.985Z,-1.70
2023-02-06T05:27:40.484Z,-1.60
2023-02-06T05:30:07.171Z,-1.60
2023-02-06T05:32:33.821Z,-1.60
2023-02-06T05:35:00.383Z,-1.60
2023-02-06T05:37:27.023Z,-1.50
2023-02-06T05:39:53.529Z,-1.50
2023-02-06T05:42:20.093Z,-1.50
2023-02-06T05:44:46.727Z,-1.50
2023-02-06T05:47:13.275Z,-1.40
2023-02-06T05:49:39.784Z,-1.40
2023-02-06T05:52:06.291Z,-1.40
2023-02-06T05:54:33.363Z,-1.40
2023-02-06T05:56:59.932Z,-1.30
2023-02-06T05:59:26.529Z,-1.30
2023-02-06T06:01:53.359Z,-1.30
2023-02-06T06:04:20.028Z,-1.30
2023-02-06T06:06:46.744Z,-1.20
2023-02-06T06:09:13.348Z,-1.10
2023-02-06T06:11:39.976Z,-1.20
2023-02-06T06:14:06.484Z,-1.20
2023-02-06T06:16:33.301Z,-1.20
2023-02-06T06:18:59.862Z,-1.10
2023-02-06T06:21:26.463Z,-1.20
2023-02-06T06:23:53.128Z,-1.00
2023-02-06T06:26:19.681Z,-1.10
2023-02-06T06:28:46.206Z,-1.00
2023-02-06T06:31:12.909Z,-1.00
2023-02-06T06:33:39.664Z,-1.00
2023-02-06T06:36:07.027Z,-0.90
2023-02-06T06:38:33.909Z,-0.80
2023-02-06T06:41:00.456Z,-0.80
2023-02-06T06:43:26.944Z,-0.80
2023-02-06T06:45:53.533Z,-0.80
2023-02-06T06:48:20.068Z,-0.80
2023-02-06T06:50:46.604Z,-0.80
2023-02-06T06:53:13.225Z,-0.80
2023-02-06T06:55:39.755Z,-0.80
2023-02-06T06:58:06.281Z,-0.70
2023-02-06T07:00:33.082Z,-0.70
2023-02-06T07:02:59.693Z,-0.70
2023-02-06T07:05:26.228Z,-0.70
2023-02-06T07:07:52.732Z,-0.60
2023-02-06T07:10:19.253Z,-0.60
2023-02-06T07:12:45.835Z,-0.60
2023-02-06T07:15:12.327Z,-0.60
2023-02-06T07:17:39.121Z,-0.50
2023-02-06T07:20:06.325Z,-0.50
2023-02-06T07:22:32.851Z,-0.50
2023-02-06T07:24:59.419Z,-0.50
2023-02-06T07:27:25.935Z,-0.50
2023-02-06T07:29:52.437Z,-0.50
2023-02-06T07:32:19.049Z,-0.40
2023-02-06T07:34:45.596Z,-0.40
2023-02-06T07:37:12.311Z,-0.40
2023-02-06T07:39:38.900Z,-0.30
2023-02-06T07:42:05.690Z,-0.30
2023-02-06T07:44:32.265Z,-0.20
2023-02-06T07:46:58.889Z,-0.20
2023-02-06T07:49:25.662Z,-0.10
2023-02-06T07:51:52.301Z,-0.10
2023-02-06T07:54:20.745Z,-0.10
2023-02-06T07:56:47.524Z,-0.10
2023-02-06T07:59:14.049Z,-0.10
2023-02-06T08:01:40.597Z,0.00
2023-02-06T08:04:07.161Z,0.00
2023-02-06T08:06:33.725Z,-0.10
2023-02-06T08:09:00.233Z,0.00
2023-02-06T08:11:29.995Z,0.00
2023-02-06T08:13:57.179Z,-0.10
2023-02-06T08:16:24.382Z,0.00
2023-02-06T08:18:51.340Z,0.00
2023-02-06T08:21:19.235Z,0.10
2023-02-06T08:23:45.801Z,0.10
2023-02-06T08:26:17.006Z,0.20
2023-02-06T08:28:44.841Z,0.10
2023-02-06T08:31:17.668Z,0.20
2023-02-06T08:33:44.795Z,0.20
2023-02-06T08:36:12.141Z,0.20
2023-02-06T08:38:39.078Z,0.30
2023-02-06T08:41:06.201Z,0.30
2023-02-06T08:43:33.243Z,0.30
2023-02-06T08:45:59.879Z,0.30
2023-02-06T08:48:26.545Z,0.30
2023-02-06T08:51:01.355Z,0.40
2023-02-06T08:53:27.950Z,0.40
2023-02-06T08:55:59.025Z,0.60
2023-02-06T08:58:25.607Z,0.80
2023-02-06T09:00:52.543Z,0.90
2023-02-06T09:03:21.057Z,1.10
2023-02-06T09:05:47.586Z,1.20
2023-02-06T09:08:14.171Z,1.40
2023-02-06T09:10:40.669Z,1.50
2023-02-06T09:13:07.255Z,1.50
2023-02-06T09:15:33.896Z,1.60
2023-02-06T09:18:00.495Z,1.80
2023-02-06T09:20:26.994Z,1.90
2023-02-06T09:22:53.570Z,2.00
2023-02-06T09:25:20.142Z,2.10
2023-02-06T09:27:47.156Z,2.40
2023-02-06T09:30:14.675Z,2.40
2023-02-06T09:32:41.298Z,2.40
2023-02-06T09:35:07.909Z,2.30
2023-02-06T09:37:34.439Z,2.40
2023-02-06T09:40:00.966Z,2.40
2023-02-06T09:42:32.644Z,2.50
2023-02-06T09:45:19.537Z,2.60
2023-02-06T09:47:48.126Z,2.90
2023-02-06T09:50:20.572Z,3.20
2023-02-06T09:52:54.793Z,3.50
2023-02-06T09:55:36.735Z,3.50
2023-02-06T09:58:23.795Z,3.70
2023-02-06T10:00:59.351Z,4.40
2023-02-06T10:03:43.759Z,5.60
2023-02-06T10:06:13.094Z,6.90
2023-02-06T10:08:42.530Z,7.50
2023-02-06T10:11:12.528Z,8.00
2023-02-06T10:13:42.393Z,7.60
2023-02-06T10:16:25.071Z,7.30
2023-02-06T10:18:53.800Z,7.40
2023-02-06T10:21:28.454Z,6.90
2023-02-06T10:24:04.441Z,6.40
2023-02-06T10:26:32.107Z,6.10
2023-02-06T10:28:59.403Z,7.70
2023-02-06T10:31:26.111Z,6.70
2023-02-06T10:33:55.742Z,6.00
2023-02-06T10:36:41.089Z,5.50
2023-02-06T10:39:20.738Z,5.10
2023-02-06T10:42:21.142Z,4.90
2023-02-06T10:45:01.320Z,4.80
2023-02-06T10:47:49.753Z,4.70
2023-02-06T10:50:19.686Z,4.70
2023-02-06T10:52:46.397Z,4.60
2023-02-06T10:55:23.768Z,4.50
2023-02-06T10:57:54.209Z,4.50
2023-02-06T11:00:25.497Z,4.60
2023-02-06T11:03:07.172Z,4.40
2023-02-06T11:05:35.560Z,4.50
2023-02-06T11:08:23.135Z,4.60
2023-02-06T11:10:49.928Z,4.70
2023-02-06T11:13:23.301Z,4.70
2023-02-06T11:15:54.366Z,4.80
2023-02-06T11:18:24.130Z,4.70
2023-02-06T11:20:50.773Z,4.70
2023-02-06T11:23:19.134Z,4.70
2023-02-06T11:25:46.739Z,4.70
2023-02-06T11:28:17.202Z,4.70
2023-02-06T11:30:53.728Z,4.60
2023-02-06T11:33:22.660Z,4.60
2023-02-06T11:35:51.809Z,4.60
2023-02-06T11:38:20.122Z,4.50
2023-02-06T11:41:03.170Z,4.50
2023-02-06T11:43:34.182Z,4.50
2023-02-06T11:46:19.798Z,4.60
2023-02-06T11:48:46.571Z,4.50
2023-02-06T11:51:14.147Z,4.50
2023-02-06T11:53:54.306Z,4.60
2023-02-06T11:56:21.344Z,4.50
2023-02-06T11:59:00.833Z,4.40
2023-02-06T12:01:27.437Z,4.40
2023-02-06T12:03:56.387Z,4.40
2023-02-06T12:06:33.295Z,4.40
2023-02-06T12:09:01.129Z,4.40
2023-02-06T12:11:30.437Z,4.20
2023-02-06T12:14:05.629Z,4.20
2023-02-06T12:16:34.094Z,4.20
2023-02-06T12:19:00.964Z,4.10
2023-02-06T12:21:33.832Z,4.10
2023-02-06T12:24:01.925Z,4.00
2023-02-06T12:26:30.263Z,4.00
2023-02-06T12:29:08.135Z,4.00
2023-02-06T12:31:50.502Z,3.90
2023-02-06T12:34:19.957Z,4.00
2023-02-06T12:36:54.630Z,4.00
2023-02-06T12:39:22.058Z,4.10
2023-02-06T12:41:51.736Z,4.00
2023-02-06T12:44:21.929Z,4.00
2023-02-06T12:46:52.924Z,4.10
2023-02-06T12:49:19.411Z,3.80
2023-02-06T12:51:51.735Z,4.00
2023-02-06T12:54:21.059Z,4.00
2023-02-06T12:56:49.630Z,4.10
2023-02-06T12:59:19.048Z,4.10
2023-02-06T13:01:51.968Z,4.00
2023-02-06T13:04:30.157Z,4.20
2023-02-06T13:06:59.566Z,4.30
2023-02-06T13:09:28.209Z,4.40
2023-02-06T13:12:05.973Z,4.40
2023-02-06T13:14:33.967Z,4.40
2023-02-06T13:17:10.040Z,4.30
2023-02-06T13:19:36.520Z,4.30
2023-02-06T13:22:08.900Z,4.40
2023-02-06T13:24:38.478Z,4.40
2023-02-06T13:27:05.141Z,4.40
2023-02-06T13:29:37.389Z,4.30
2023-02-06T13:32:18.400Z,4.40
2023-02-06T13:34:45.012Z,4.60
2023-02-06T13:37:20.887Z,4.70
2023-02-06T13:39:48.256Z,4.80
2023-02-06T13:42:43.900Z,4.80
2023-02-06T13:45:15.983Z,4.80
2023-02-06T13:47:42.532Z,4.90
2023-02-06T13:50:21.298Z,4.90
2023-02-06T13:52:47.786Z,4.90
2023-02-06T13:55:33.226Z,4.90
2023-02-06T13:58:18.524Z,5.00
2023-02-06T14:00:46.557Z,5.00
2023-02-06T14:03:16.209Z,5.10
2023-02-06T14:05:42.802Z,5.20
2023-02-06T14:08:18.209Z,5.40
2023-02-06T14:11:03.035Z,5.50
2023-02-06T14:13:30.109Z,5.40
2023-02-06T14:16:15.267Z,5.50
2023-02-06T14:18:55.545Z,5.50
2023-02-06T14:21:35.381Z,5.40
2023-02-06T14:24:07.983Z,5.40
2023-02-06T14:26:46.347Z,5.40
2023-02-06T14:29:12.823Z,5.40
2023-02-06T14:31:48.738Z,5.30
2023-02-06T14:34:26.947Z,5.10
2023-02-06T14:37:11.793Z,5.20
2023-02-06T14:39:47.540Z,5.10
2023-02-06T14:42:20.252Z,5.00
2023-02-06T14:44:51.427Z,4.90
2023-02-06T14:47:22.878Z,4.90
2023-02-06T14:49:50.244Z,4.90
2023-02-06T14:52:21.767Z,4.80
2023-02-06T14:54:48.682Z,4.80
2023-02-06T14:57:35.468Z,4.70
2023-02-06T15:00:05.578Z,4.70
2023-02-06T15:02:33.697Z,4.60
2023-02-06T15:05:01.996Z,4.50
2023-02-06T15:07:33.345Z,4.40
2023-02-06T15:10:02.190Z,4.40
2023-02-06T15:12:29.230Z,4.40
2023-02-06T15:15:04.568Z,4.30
2023-02-06T15:17:31.653Z,4.30
2023-02-06T15:20:13.620Z,4.30
2023-02-06T15:22:40.157Z,4.20
2023-02-06T15:25:06.764Z,4.20
2023-02-06T15:27:34.651Z,4.10
2023-02-06T15:30:01.848Z,4.00
2023-02-06T15:32:28.358Z,4.10
2023-02-06T15:34:55.340Z,4.10
2023-02-06T15:37:23.706Z,4.00
2023-02-06T15:39:50.663Z,4.00
2023-02-06T15:42:17.716Z,3.80
2023-02-06T15:44:44.343Z,3.80
2023-02-06T15:47:13.104Z,3.80
2023-02-06T15:49:47.495Z,3.70
2023-02-06T15:52:15.217Z,3.60
2023-02-06T15:54:42.636Z,3.60
2023-02-06T15:57:24.323Z,3.60
2023-02-06T15:59:51.194Z,3.60
2023-02-06T16:02:22.641Z,3.50
2023-02-06T16:04:52.771Z,3.50
2023-02-06T16:07:23.536Z,3.50
2023-02-06T16:10:08.214Z,3.40
2023-02-06T16:12:35.711Z,3.40
2023-02-06T16:15:03.463Z,3.30
2023-02-06T16:17:31.814Z,3.30
2023-02-06T16:20:06.684Z,3.30
2023-02-06T16:22:34.736Z,3.20
2023-02-06T16:25:30.635Z,3.30
2023-02-06T16:27:57.782Z,3.20
2023-02-06T16:30:28.898Z,3.30
2023-02-06T16:32:56.330Z,3.30
2023-02-06T16:35:23.349Z,3.20
2023-02-06T16:37:50.868Z,3.20
2023-02-06T16:40:17.661Z,3.10
2023-02-06T16:42:47.307Z,3.00
2023-02-06T16:45:24.586Z,3.00
2023-02-06T16:47:51.097Z,3.10
2023-02-06T16:50:18.039Z,3.00
2023-02-06T16:52:49.550Z,2.90
2023-02-06T16:55:18.356Z,3.00
2023-02-06T16:57:45.402Z,2.90
2023-02-06T17:00:17.804Z,2.90
2023-02-06T17:02:45.045Z,2.90
2023-02-06T17:05:12.063Z,2.90
2023-02-06T17:07:38.849Z,2.80
2023-02-06T17:10:05.923Z,2.80
2023-02-06T17:12:32.694Z,2.90
2023-02-06T17:14:59.259Z,2.90
2023-02-06T17:17:25.838Z,2.80
2023-02-06T17:19:53.893Z,2.70
2023-02-06T17:22:20.505Z,2.70
2023-02-06T17:24:47.066Z,2.70
2023-02-06T17:27:15.757Z,2.70
2023-02-06T17:29:42.373Z,2.70
2023-02-06T17:32:09.293Z,2.70
2023-02-06T17:34:36.133Z,2.70
2023-02-06T17:37:03.196Z,2.70
2023-02-06T17:39:29.821Z,2.70
2023-02-06T17:41:56.360Z,2.70
2023-02-06T17:44:22.859Z,2.70
2023-02-06T17:46:49.802Z,2.60
2023-02-06T17:49:16.988Z,2.70
2023-02-06T17:51:44.233Z,2.60
2023-02-06T17:54:11.232Z,2.60
2023-02-06T17:56:38.040Z,2.60
2023-02-06T17:59:04.591Z,2.70
2023-02-06T18:01:31.182Z,2.70
2023-02-06T18:03:59.289Z,2.70
2023-02-06T18:06:25.770Z,2.70
2023-02-06T18:08:52.327Z,2.70
2023-02-06T18:11:20.289Z,2.70
2023-02-06T18:13:47.739Z,2.70
2023-02-06T18:16:19.311Z,2.70
2023-02-06T18:18:46.156Z,2.70
2023-02-06T18:21:12.680Z,2.70
2023-02-06T18:23:39.588Z,2.70
2023-02-06T18:26:07.598Z,2.60
2023-02-06T18:28:34.947Z,2.60
2023-02-06T18:31:02.145Z,2.60
2023-02-06T18:33:29.818Z,2.60
2023-02-06T18:35:56.656Z,2.60
2023-02-06T18:38:23.387Z,2.60
2023-02-06T18:40:50.174Z,2.60
2023-02-06T18:43:16.747Z,2.50
2023-02-06T18:45:43.311Z,2.60
2023-02-06T18:48:11.076Z,2.50
2023-02-06T18:50:40.118Z,2.50
2023-02-06T18:53:07.133Z,2.60
2023-02-06T18:55:35.111Z,2.60
2023-02-06T18:58:02.100Z,2.60
2023-02-06T19:00:28.694Z,2.50
2023-02-06T19:02:57.174Z,2.50
2023-02-06T19:05:23.712Z,2.50
2023-02-06T19:07:52.117Z,2.50
2023-02-06T19:10:19.434Z,2.50
2023-02-06T19:12:46.504Z,2.50
2023-02-06T19:15:14.732Z,2.40
2023-02-06T19:17:41.534Z,2.50
2023-02-06T19:20:08.853Z,2.30
2023-02-06T19:22:36.311Z,2.30
2023-02-06T19:25:03.557Z,2.30
2023-02-06T19:27:30.110Z,2.20
2023-02-06T19:29:56.650Z,2.20
2023-02-06T19:32:25.929Z,2.20
2023-02-06T19:34:52.507Z,2.20
2023-02-06T19:37:19.045Z,2.10
2023-02-06T19:39:45.564Z,2.10
2023-02-06T19:42:15.473Z,2.10
2023-02-06T19:44:42.674Z,2.00
2023-02-06T19:47:09.593Z,2.00
2023-02-06T19:49:36.439Z,2.10
2023-02-06T19:52:03.548Z,2.00
2023-02-06T19:54:30.050Z,2.00
2023-02-06T19:56:56.609Z,1.90
2023-02-06T19:59:24.628Z,1.90
2023-02-06T20:01:53.160Z,1.90
2023-02-06T20:04:21.429Z,1.90
2023-02-06T20:06:49.985Z,1.80
2023-02-06T20:09:17.083Z,1.70
2023-02-06T20:11:44.367Z,1.70
2023-02-06T20:14:12.172Z,1.60
2023-02-06T20:16:39.525Z,1.60
2023-02-06T20:19:13.124Z,1.50
2023-02-06T20:21:40.871Z,1.50
2023-02-06T20:24:08.732Z,1.40
2023-02-06T20:26:38.173Z,1.50
2023-02-06T20:29:06.195Z,1.40
2023-02-06T20:31:36.406Z,1.40
2023-02-06T20:34:03.155Z,1.40
2023-02-06T20:36:29.971Z,1.30
2023-02-06T20:38:57.824Z,1.30
2023-02-06T20:41:26.257Z,1.30
2023-02-06T20:43:52.817Z,1.20
2023-02-06T20:46:20.859Z,1.20
2023-02-06T20:48:52.120Z,1.20
2023-02-06T20:51:18.684Z,1.10
2023-02-06T20:53:45.217Z,1.10
2023-02-06T20:56:12.533Z,1.00
2023-02-06T20:58:39.169Z,1.00
2023-02-06T21:01:25.158Z,1.00
2023-02-06T21:03:53.842Z,1.00
2023-02-06T21:06:21.063Z,0.90
2023-02-06T21:08:49.997Z,0.80
2023-02-06T21:11:16.779Z,0.80
2023-02-06T21:13:43.423Z,0.80
2023-02-06T21:16:13.368Z,0.70
2023-02-06T21:18:42.415Z,0.80
2023-02-06T21:21:10.322Z,0.60
2023-02-06T21:23:37.456Z,0.60
2023-02-06T21:26:04.665Z,0.60
2023-02-06T21:28:31.331Z,0.60
2023-02-06T21:31:02.509Z,0.60
2023-02-06T21:33:29.134Z,0.60
2023-02-06T21:35:55.800Z,0.50
2023-02-06T21:38:22.893Z,0.50
2023-02-06T21:40:49.447Z,0.40
2023-02-06T21:43:16.209Z,0.30
2023-02-06T21:45:43.019Z,0.30
2023-02-06T21:48:09.570Z,0.30
2023-02-06T21:50:39.751Z,0.30
2023-02-06T21:53:06.412Z,0.30
2023-02-06T21:55:32.926Z,0.30
2023-02-06T21:58:01.008Z,0.20
2023-02-06T22:00:28.409Z,0.20
2023-02-06T22:02:54.982Z,0.20
2023-02-06T22:05:21.551Z,0.10
2023-02-06T22:07:48.069Z,0.10
2023-02-06T22:10:14.627Z,0.10
2023-02-06T22:12:41.211Z,0.20
2023-02-06T22:15:08.228Z,0.10
2023-02-06T22:17:35.591Z,0.10
2023-02-06T22:20:02.373Z,0.00
2023-02-06T22:22:28.889Z,0.00
2023-02-06T22:24:55.489Z,0.00
2023-02-06T22:27:22.900Z,-0.10
2023-02-06T22:29:49.505Z,-0.10
2023-02-06T22:32:16.038Z,-0.10
2023-02-06T22:34:42.549Z,-0.20
2023-02-06T22:37:09.102Z,-0.20
2023-02-06T22:39:35.752Z,-0.20
2023-02-06T22:42:02.358Z,-0.30
2023-02-06T22:44:28.894Z,-0.30
2023-02-06T22:46:55.384Z,-0.30
2023-02-06T22:49:22.086Z,-0.30
2023-02-06T22:51:48.642Z,-0.40
2023-02-06T22:54:15.412Z,-0.40
2023-02-06T22:56:42.432Z,-0.40
2023-02-06T22:59:12.082Z,-0.40
2023-02-06T23:01:48.808Z,-0.40
2023-02-06T23:04:19.794Z,-0.50
2023-02-06T23:06:46.899Z,-0.40
2023-02-06T23:09:17.842Z,-0.50
2023-02-06T23:11:44.661Z,-0.50
2023-02-06T23:14:11.852Z,-0.50
2023-02-06T23:16:38.463Z,-0.50
2023-02-06T23:19:05.888Z,-0.60
2023-02-06T23:21:36.983Z,-0.60
2023-02-06T23:24:07.397Z,-0.60
2023-02-06T23:26:34.395Z,-0.70
2023-02-06T23:29:01.886Z,-0.70
2023-02-06T23:31:29.079Z,-0.70
2023-02-06T23:33:55.828Z,-0.70
2023-02-06T23:36:23.660Z,-0.80
2023-02-06T23:38:50.358Z,-0.80
2023-02-06T23:41:21.340Z,-0.80
2023-02-06T23:43:51.918Z,-0.80
2023-02-06T23:46:19.912Z,-0.80
2023-02-06T23:48:47.000Z,-0.90
2023-02-06T23:51:13.670Z,-0.90
2023-02-06T23:53:40.192Z,-0.90
2023-02-06T23:56:11.040Z,-0.90
2023-02-06T23:58:37.709Z,-0.90
